Time;durP1;ratioP1;P1;durP2;ratioP2;P2;SDS_P1;SDS_P2;PMS_P1;PMS_P2;Temp;Humidity;BMP_temperature;BMP_pressure;BME280_temperature;BME280_humidity;BME280_pressure;Samples;Min_cycle;Max_cycle;Signal;HPM_P1;HPM_P2
2022/05/27 00:02:22;;;;;;;2.22;1.65;;;;;;;;;;5035362;28;20100;-39
2022/05/27 00:04:47;;;;;;;4.88;1.75;;;;;;;;;;5035369;28;20100;-39
2022/05/27 00:07:13;;;;;;;2.85;1.92;;;;;;;;;;5035725;28;20103;-39
2022/05/27 00:09:38;;;;;;;2.30;1.80;;;;;;;;;;5035435;28;20032;-39
2022/05/27 00:12:04;;;;;;;2.88;1.60;;;;;;;;;;5034107;28;20384;-39
2022/05/27 00:14:29;;;;;;;6.22;2.13;;;;;;;;;;5034174;28;20116;-39
2022/05/27 00:16:54;;;;;;;4.45;2.13;;;;;;;;;;5035107;28;20022;-39
2022/05/27 00:19:20;;;;;;;4.18;1.65;;;;;;;;;;5033837;28;20033;-39
2022/05/27 00:21:45;;;;;;;2.50;1.33;;;;;;;;;;5034853;28;20530;-40
2022/05/27 00:24:11;;;;;;;4.20;2.15;;;;;;;;;;5034904;28;20017;-39
2022/05/27 00:26:36;;;;;;;6.75;2.10;;;;;;;;;;5035119;28;20025;-39
2022/05/27 00:29:02;;;;;;;2.92;2.10;;;;;;;;;;5034878;28;20112;-39
2022/05/27 00:31:27;;;;;;;4.03;2.30;;;;;;;;;;5034771;28;20022;-39
2022/05/27 00:33:52;;;;;;;3.50;2.20;;;;;;;;;;5033655;28;20033;-39
2022/05/27 00:36:18;;;;;;;3.83;2.33;;;;;;;;;;5034771;28;20021;-40
2022/05/27 00:38:43;;;;;;;3.92;2.13;;;;;;;;;;5034786;28;20088;-39
2022/05/27 00:41:09;;;;;;;4.55;2.00;;;;;;;;;;5035111;28;20026;-39
2022/05/27 00:43:35;;;;;;;3.90;2.75;;;;;;;;;;5034994;28;20144;-39
2022/05/27 00:46:03;;;;;;;18.02;3.83;;;;;;;;;;5034641;28;20480;-39
2022/05/27 00:48:28;;;;;;;4.78;2.40;;;;;;;;;;5034591;28;20025;-39
2022/05/27 00:50:54;;;;;;;5.82;2.63;;;;;;;;;;5034477;28;20032;-39
2022/05/27 00:53:23;;;;;;;4.30;2.30;;;;;;;;;;5033061;28;20021;-39
2022/05/27 00:55:51;;;;;;;2.00;1.80;;;;;;;;;;5034729;28;20483;-39
2022/05/27 00:58:19;;;;;;;2.80;2.13;;;;;;;;;;5034256;28;20034;-39
2022/05/27 01:00:45;;;;;;;3.25;1.92;;;;;;;;;;5034380;28;20044;-39
2022/05/27 01:03:12;;;;;;;4.32;2.17;;;;;;;;;;5034254;28;20484;-39
2022/05/27 01:05:40;;;;;;;3.88;2.35;;;;;;;;;;5034236;28;20027;-39
2022/05/27 01:08:07;;;;;;;4.13;2.00;;;;;;;;;;5029404;28;20022;-39
2022/05/27 01:10:36;;;;;;;4.47;1.85;;;;;;;;;;5014480;28;20105;-39
2022/05/27 01:13:28;;;;;;;2.72;1.98;;;;;;;;;;5013373;28;20049;-39
2022/05/27 01:15:54;;;;;;;4.60;2.00;;;;;;;;;;5014572;28;20101;-39
2022/05/27 01:20:18;;;;;;;2.85;2.10;;;;;;;;;;5013996;28;20031;-39
2022/05/27 01:21:14;;;;;;;2.22;2.03;;;;;;;;;;5014040;28;20650;-39
2022/05/27 01:24:00;;;;;;;5.07;2.40;;;;;;;;;;5012839;28;20018;-39
2022/05/27 01:26:41;;;;;;;4.82;2.53;;;;;;;;;;5012827;28;20030;-39
2022/05/27 01:29:09;;;;;;;2.63;2.35;;;;;;;;;;5014484;28;20069;-39
2022/05/27 01:31:37;;;;;;;6.35;2.60;;;;;;;;;;5012884;28;20037;-39
2022/05/27 01:34:11;;;;;;;2.73;2.27;;;;;;;;;;5013540;28;20022;-39
2022/05/27 01:36:55;;;;;;;3.63;2.05;;;;;;;;;;5013961;28;20026;-39
2022/05/27 01:39:20;;;;;;;3.70;2.85;;;;;;;;;;5013607;28;20038;-39
2022/05/27 01:41:49;;;;;;;2.70;2.17;;;;;;;;;;5012792;28;20029;-39
2022/05/27 01:44:29;;;;;;;3.60;2.58;;;;;;;;;;5012658;28;20342;-39
2022/05/27 01:46:56;;;;;;;7.97;3.15;;;;;;;;;;5013658;28;20025;-39
2022/05/27 01:49:21;;;;;;;3.55;2.50;;;;;;;;;;5013778;28;20026;-39
2022/05/27 01:52:06;;;;;;;5.57;2.67;;;;;;;;;;5013539;28;20465;-39
2022/05/27 01:54:39;;;;;;;3.83;2.88;;;;;;;;;;5012471;28;20033;-39
2022/05/27 01:57:06;;;;;;;2.80;2.50;;;;;;;;;;5013576;28;20076;-39
2022/05/27 01:59:44;;;;;;;6.38;2.70;;;;;;;;;;5013530;28;20436;-39
2022/05/27 02:02:15;;;;;;;4.80;2.30;;;;;;;;;;5012095;28;20064;-39
2022/05/27 02:05:06;;;;;;;4.32;2.97;;;;;;;;;;5013931;28;20036;-39
2022/05/27 02:07:38;;;;;;;4.25;2.83;;;;;;;;;;5042873;28;20044;-39
2022/05/27 02:10:07;;;;;;;5.97;2.88;;;;;;;;;;5013452;28;20018;-39
2022/05/27 02:12:48;;;;;;;4.03;2.80;;;;;;;;;;5013362;28;20025;-39
2022/05/27 02:15:15;;;;;;;4.03;2.90;;;;;;;;;;5013454;28;20083;-39
2022/05/27 02:17:47;;;;;;;5.22;2.42;;;;;;;;;;5013128;28;20017;-39
2022/05/27 02:20:32;;;;;;;5.05;3.47;;;;;;;;;;5045292;28;20381;-39
2022/05/27 02:23:01;;;;;;;4.45;2.95;;;;;;;;;;5012804;28;20482;-39
2022/05/27 02:25:29;;;;;;;4.43;2.70;;;;;;;;;;5013635;28;20105;-39
2022/05/27 02:28:04;;;;;;;6.73;3.53;;;;;;;;;;5013696;28;20053;-39
2022/05/27 02:30:32;;;;;;;5.82;2.90;;;;;;;;;;5012958;28;20026;-39
2022/05/27 02:35:46;;;;;;;5.00;2.25;;;;;;;;;;5013315;28;20393;-39
2022/05/27 02:38:12;;;;;;;3.70;2.45;;;;;;;;;;5012786;28;20141;-39
2022/05/27 02:40:43;;;;;;;3.65;2.03;;;;;;;;;;5013222;28;20049;-39
2022/05/27 02:43:20;;;;;;;4.68;2.42;;;;;;;;;;5011856;28;20080;-39
2022/05/27 02:45:45;;;;;;;5.47;2.65;;;;;;;;;;5014113;28;20487;-39
2022/05/27 02:48:10;;;;;;;5.15;2.45;;;;;;;;;;5017031;28;20109;-39
2022/05/27 02:50:51;;;;;;;2.55;1.80;;;;;;;;;;5016929;28;20029;-39
2022/05/27 02:53:27;;;;;;;3.20;2.20;;;;;;;;;;5015738;28;20033;-39
2022/05/27 02:55:59;;;;;;;3.17;2.10;;;;;;;;;;5016766;28;20033;-39
2022/05/27 02:58:24;;;;;;;2.72;1.90;;;;;;;;;;5015530;28;20044;-39
2022/05/27 03:00:49;;;;;;;2.35;2.08;;;;;;;;;;5048503;28;20022;-39
2022/05/27 03:03:15;;;;;;;4.60;2.20;;;;;;;;;;5015602;28;20022;-39
2022/05/27 03:05:40;;;;;;;3.92;2.38;;;;;;;;;;5033479;28;20460;-39
2022/05/27 03:08:08;;;;;;;5.27;2.80;;;;;;;;;;5036370;28;20483;-39
2022/05/27 03:10:37;;;;;;;2.75;2.20;;;;;;;;;;5035213;28;20251;-39
2022/05/27 03:13:11;;;;;;;3.33;2.77;;;;;;;;;;5036357;28;20036;-39
2022/05/27 03:15:55;;;;;;;4.20;2.10;;;;;;;;;;5036244;28;20032;-39
2022/05/27 03:18:33;;;;;;;4.68;2.25;;;;;;;;;;5036095;28;20155;-39
2022/05/27 03:21:13;;;;;;;6.47;3.40;;;;;;;;;;5036191;28;20108;-39
2022/05/27 03:23:48;;;;;;;4.63;2.50;;;;;;;;;;5036095;28;20021;-40
2022/05/27 03:26:13;;;;;;;6.82;2.63;;;;;;;;;;5036457;28;20078;-39
2022/05/27 03:28:51;;;;;;;3.55;2.38;;;;;;;;;;5035865;28;20025;-39
2022/05/27 03:31:23;;;;;;;2.90;2.03;;;;;;;;;;5035961;28;20025;-39
2022/05/27 03:34:07;;;;;;;3.65;2.22;;;;;;;;;;5035940;28;20018;-39
2022/05/27 03:36:35;;;;;;;4.55;2.25;;;;;;;;;;5035918;28;20154;-39
2022/05/27 03:39:01;;;;;;;2.60;1.75;;;;;;;;;;5036135;28;20057;-39
2022/05/27 03:41:29;;;;;;;4.25;2.33;;;;;;;;;;5035980;28;20021;-39
2022/05/27 03:43:54;;;;;;;7.07;2.95;;;;;;;;;;5035853;28;20420;-39
2022/05/27 03:46:27;;;;;;;7.35;3.00;;;;;;;;;;5034490;28;20044;-39
2022/05/27 03:48:52;;;;;;;4.85;2.35;;;;;;;;;;5035853;28;20468;-40
2022/05/27 03:51:20;;;;;;;4.95;2.30;;;;;;;;;;5034478;28;20031;-39
2022/05/27 03:54:03;;;;;;;10.02;3.10;;;;;;;;;;5035636;28;20453;-39
2022/05/27 03:56:31;;;;;;;7.22;2.78;;;;;;;;;;5035023;28;20025;-40
2022/05/27 03:58:57;;;;;;;10.50;2.95;;;;;;;;;;5035717;28;20040;-39
2022/05/27 04:01:24;;;;;;;4.00;2.40;;;;;;;;;;5034080;28;20033;-39
2022/05/27 04:03:50;;;;;;;6.72;2.47;;;;;;;;;;5035203;28;20025;-39
2022/05/27 04:06:16;;;;;;;5.65;2.50;;;;;;;;;;5034210;28;20028;-39
2022/05/27 04:08:41;;;;;;;12.18;3.10;;;;;;;;;;5035223;28;20029;-39
2022/05/27 04:11:06;;;;;;;13.77;3.03;;;;;;;;;;5035273;28;20499;-39
2022/05/27 04:13:32;;;;;;;5.65;2.50;;;;;;;;;;5035249;28;20101;-39
2022/05/27 04:15:57;;;;;;;6.72;2.70;;;;;;;;;;5033893;28;20025;-40
2022/05/27 04:18:22;;;;;;;12.60;2.65;;;;;;;;;;5034964;28;20049;-39
2022/05/27 04:20:48;;;;;;;5.90;2.60;;;;;;;;;;5035162;28;20056;-39
2022/05/27 04:23:14;;;;;;;10.43;2.65;;;;;;;;;;5035176;28;20028;-40
2022/05/27 04:25:39;;;;;;;11.75;2.88;;;;;;;;;;5035070;28;20465;-40
2022/05/27 04:28:04;;;;;;;7.85;2.45;;;;;;;;;;5034986;28;20086;-40
2022/05/27 04:30:30;;;;;;;4.50;2.40;;;;;;;;;;5034874;28;20013;-40
2022/05/27 04:32:55;;;;;;;6.45;3.35;;;;;;;;;;5034815;28;20461;-40
2022/05/27 04:35:22;;;;;;;7.03;2.50;;;;;;;;;;5034823;28;20028;-40
2022/05/27 04:37:47;;;;;;;7.18;2.67;;;;;;;;;;5034739;28;20045;-40
2022/05/27 04:40:13;;;;;;;5.75;2.17;;;;;;;;;;5033435;28;20033;-39
2022/05/27 04:42:38;;;;;;;7.88;2.83;;;;;;;;;;5035024;28;20049;-39
2022/05/27 04:45:04;;;;;;;4.47;2.42;;;;;;;;;;5034592;28;20032;-39
2022/05/27 04:47:29;;;;;;;4.90;2.75;;;;;;;;;;5034693;28;20059;-39
2022/05/27 04:49:55;;;;;;;4.53;2.40;;;;;;;;;;5034525;28;20380;-39
2022/05/27 04:52:27;;;;;;;4.00;1.95;;;;;;;;;;5033301;28;20025;-39
2022/05/27 04:54:53;;;;;;;7.25;2.10;;;;;;;;;;5034492;28;20049;-39
2022/05/27 04:57:20;;;;;;;3.42;1.98;;;;;;;;;;5034444;28;20066;-40
2022/05/27 04:59:49;;;;;;;4.53;2.10;;;;;;;;;;5034350;28;20029;-38
2022/05/27 05:02:15;;;;;;;4.72;2.03;;;;;;;;;;5030028;28;20377;-39
2022/05/27 05:04:40;;;;;;;4.20;1.70;;;;;;;;;;5014923;28;20026;-39
2022/05/27 05:07:07;;;;;;;2.60;1.70;;;;;;;;;;5014538;28;20072;-38
2022/05/27 05:09:34;;;;;;;2.17;1.73;;;;;;;;;;5013634;28;20029;-39
2022/05/27 05:11:59;;;;;;;5.72;2.15;;;;;;;;;;5014526;28;20469;-39
2022/05/27 05:14:24;;;;;;;3.38;1.55;;;;;;;;;;5014249;28;20034;-39
2022/05/27 05:16:51;;;;;;;3.85;1.40;;;;;;;;;;5014518;28;20065;-40
2022/05/27 05:19:16;;;;;;;3.15;1.40;;;;;;;;;;5014009;28;20172;-38
2022/05/27 05:21:41;;;;;;;2.63;1.50;;;;;;;;;;5014269;28;20097;-39
2022/05/27 05:24:07;;;;;;;2.75;1.45;;;;;;;;;;5014613;28;20032;-38
2022/05/27 05:26:32;;;;;;;6.45;1.33;;;;;;;;;;5012839;28;20026;-38
2022/05/27 05:28:58;;;;;;;3.65;1.40;;;;;;;;;;5013901;28;20469;-39
2022/05/27 05:31:23;;;;;;;5.93;1.50;;;;;;;;;;5012539;28;20036;-39
2022/05/27 05:33:48;;;;;;;4.90;1.17;;;;;;;;;;5014153;28;20108;-39
2022/05/27 05:36:14;;;;;;;1.63;1.08;;;;;;;;;;5014059;28;20029;-39
2022/05/27 05:38:39;;;;;;;1.10;1.00;;;;;;;;;;5015910;28;20096;-39
2022/05/27 05:41:05;;;;;;;5.25;1.10;;;;;;;;;;5028126;28;20029;-39
2022/05/27 05:43:31;;;;;;;2.03;1.30;;;;;;;;;;5028820;28;20075;-40
2022/05/27 05:45:56;;;;;;;2.05;1.08;;;;;;;;;;5029972;28;20029;-42
2022/05/27 05:48:22;;;;;;;3.03;1.52;;;;;;;;;;5030601;28;20025;-42
2022/05/27 05:50:47;;;;;;;4.45;1.13;;;;;;;;;;5030720;28;20021;-39
2022/05/27 05:53:13;;;;;;;6.10;0.93;;;;;;;;;;5028114;28;20683;-39
2022/05/27 05:55:38;;;;;;;1.75;1.08;;;;;;;;;;5019193;28;20033;-39
2022/05/27 05:58:04;;;;;;;2.67;1.30;;;;;;;;;;5020438;28;20057;-39
2022/05/27 06:00:29;;;;;;;3.47;1.25;;;;;;;;;;5027047;28;20029;-40
2022/05/27 06:02:55;;;;;;;2.65;1.25;;;;;;;;;;5027442;28;20017;-39
2022/05/27 06:05:21;;;;;;;5.80;1.40;;;;;;;;;;5029696;28;20101;-39
2022/05/27 06:07:47;;;;;;;1.30;1.10;;;;;;;;;;5030765;28;20069;-39
2022/05/27 06:10:13;;;;;;;3.90;1.10;;;;;;;;;;5032198;28;20041;-38
2022/05/27 06:12:39;;;;;;;1.52;0.80;;;;;;;;;;5031291;28;20021;-41
2022/05/27 06:15:06;;;;;;;4.40;1.20;;;;;;;;;;5032141;28;20029;-41
2022/05/27 06:17:33;;;;;;;3.78;1.27;;;;;;;;;;5027234;28;20413;-39
2022/05/27 06:19:58;;;;;;;4.28;1.00;;;;;;;;;;5016989;28;20061;-39
2022/05/27 06:22:23;;;;;;;1.35;1.00;;;;;;;;;;5014818;28;20061;-39
2022/05/27 06:24:49;;;;;;;2.40;1.40;;;;;;;;;;5013265;28;20096;-39
2022/05/27 06:27:14;;;;;;;2.72;1.00;;;;;;;;;;5014825;28;20060;-39
2022/05/27 06:35:07;;;;;;;2.47;0.88;;;;;;;;;;5021535;28;20029;-39
2022/05/27 06:37:33;;;;;;;1.40;0.52;;;;;;;;;;5028911;28;20058;-40
2022/05/27 06:39:58;;;;;;;1.17;0.95;;;;;;;;;;5028910;28;20124;-40
2022/05/27 06:42:24;;;;;;;0.80;0.63;;;;;;;;;;5013432;28;20021;-42
2022/05/27 06:44:49;;;;;;;1.95;0.63;;;;;;;;;;5020470;28;20098;-39
2022/05/27 06:47:15;;;;;;;5.20;1.02;;;;;;;;;;5023439;28;20029;-40
2022/05/27 06:49:43;;;;;;;2.33;0.82;;;;;;;;;;5028567;28;20487;-38
2022/05/27 06:52:09;;;;;;;2.25;0.80;;;;;;;;;;5021860;28;20026;-41
2022/05/27 06:54:34;;;;;;;1.73;0.75;;;;;;;;;;5028836;28;20025;-39
2022/05/27 06:56:59;;;;;;;2.75;0.80;;;;;;;;;;5025973;28;20032;-39
2022/05/27 06:59:25;;;;;;;2.70;1.00;;;;;;;;;;5020490;28;20048;-39
2022/05/27 07:01:50;;;;;;;19.17;2.28;;;;;;;;;;5031221;28;20404;-39
2022/05/27 07:04:17;;;;;;;2.47;0.70;;;;;;;;;;5025258;28;20045;-39
2022/05/27 07:06:44;;;;;;;2.25;0.60;;;;;;;;;;5021506;28;20029;-40
2022/05/27 07:09:13;;;;;;;2.25;0.70;;;;;;;;;;5028426;28;20025;-39
2022/05/27 07:11:40;;;;;;;1.23;0.63;;;;;;;;;;5020472;28;20061;-39
2022/05/27 07:14:06;;;;;;;2.15;0.60;;;;;;;;;;5026904;28;20027;-39
2022/05/27 07:16:31;;;;;;;4.95;0.68;;;;;;;;;;5031974;28;20076;-38
2022/05/27 07:18:57;;;;;;;3.80;0.80;;;;;;;;;;5028161;28;20037;-38
2022/05/27 07:21:22;;;;;;;0.70;0.70;;;;;;;;;;5024267;28;20032;-39
2022/05/27 07:23:50;;;;;;;2.58;0.70;;;;;;;;;;5024511;28;20025;-39
2022/05/27 07:26:16;;;;;;;6.35;5.38;;;;;;;;;;5017138;28;20025;-40
2022/05/27 07:28:41;;;;;;;0.88;0.63;;;;;;;;;;5017165;28;20479;-39
2022/05/27 07:31:07;;;;;;;1.58;0.70;;;;;;;;;;5021463;28;20458;-40
2022/05/27 07:33:32;;;;;;;0.43;0.43;;;;;;;;;;5029403;28;20163;-39
2022/05/27 07:35:57;;;;;;;2.90;0.60;;;;;;;;;;5025273;28;20566;-41
2022/05/27 07:38:23;;;;;;;3.22;0.80;;;;;;;;;;5031212;28;20443;-39
2022/05/27 07:40:48;;;;;;;2.22;0.75;;;;;;;;;;5024214;28;20032;-39
2022/05/27 07:43:14;;;;;;;4.03;0.73;;;;;;;;;;5018511;28;20029;-40
2022/05/27 07:45:41;;;;;;;1.02;0.40;;;;;;;;;;5023304;28;20025;-39
2022/05/27 07:48:08;;;;;;;1.52;0.68;;;;;;;;;;5028541;28;20030;-39
2022/05/27 07:50:33;;;;;;;2.13;0.60;;;;;;;;;;5020046;28;20109;-39
2022/05/27 07:52:59;;;;;;;2.22;0.75;;;;;;;;;;5023664;28;20152;-39
2022/05/27 07:55:24;;;;;;;3.33;0.88;;;;;;;;;;5027701;28;20021;-40
2022/05/27 07:57:50;;;;;;;2.58;0.82;;;;;;;;;;5042773;28;20372;-39
2022/05/27 08:00:18;;;;;;;2.15;0.52;;;;;;;;;;5022989;28;20022;-40
2022/05/27 08:02:43;;;;;;;6.13;0.50;;;;;;;;;;5020967;28;20053;-39
2022/05/27 08:05:10;;;;;;;3.97;0.80;;;;;;;;;;5019421;28;20056;-40
2022/05/27 08:07:35;;;;;;;1.50;0.50;;;;;;;;;;5024172;28;20033;-41
2022/05/27 08:10:01;;;;;;;1.60;0.52;;;;;;;;;;5024117;28;20029;-39
2022/05/27 08:12:26;;;;;;;1.70;0.60;;;;;;;;;;5033604;28;20037;-40
2022/05/27 08:14:52;;;;;;;0.52;0.40;;;;;;;;;;5026209;28;20060;-39
2022/05/27 08:17:17;;;;;;;3.60;0.77;;;;;;;;;;5034435;28;20056;-40
2022/05/27 08:19:43;;;;;;;1.10;0.70;;;;;;;;;;5024307;28;20038;-41
2022/05/27 08:22:08;;;;;;;1.30;0.50;;;;;;;;;;5033483;28;20021;-39
2022/05/27 08:24:33;;;;;;;1.75;0.70;;;;;;;;;;5031745;28;20453;-40
2022/05/27 08:26:59;;;;;;;4.80;0.55;;;;;;;;;;5031521;28;20052;-40
2022/05/27 08:29:25;;;;;;;4.15;0.63;;;;;;;;;;5025091;28;20025;-39
2022/05/27 08:31:50;;;;;;;0.68;0.38;;;;;;;;;;5014653;28;20076;-39
2022/05/27 08:39:48;;;;;;;1.58;0.60;;;;;;;;;;5022726;28;20523;-39
2022/05/27 08:42:39;;;;;;;1.90;0.70;;;;;;;;;;5034059;28;20033;-39
2022/05/27 08:45:22;;;;;;;1.60;0.90;;;;;;;;;;5032928;28;20045;-39
2022/05/27 08:47:51;;;;;;;1.65;0.65;;;;;;;;;;5029322;28;20040;-39
2022/05/27 08:50:19;;;;;;;1.38;0.73;;;;;;;;;;5029238;28;20049;-40
2022/05/27 08:52:46;;;;;;;2.17;0.63;;;;;;;;;;5023702;28;20489;-39
2022/05/27 09:01:19;;;;;;;2.50;0.70;;;;;;;;;;5022571;28;20040;-42
2022/05/27 09:04:07;;;;;;;0.93;0.60;;;;;;;;;;5023392;28;20032;-38
2022/05/27 09:06:39;;;;;;;5.75;0.77;;;;;;;;;;5008836;28;20439;-39
2022/05/27 09:09:06;;;;;;;2.83;0.70;;;;;;;;;;5024809;28;20022;-39
2022/05/27 09:11:45;;;;;;;1.83;0.93;;;;;;;;;;5028780;28;20035;-38
2022/05/27 09:14:18;;;;;;;2.38;0.70;;;;;;;;;;5028384;28;20522;-39
2022/05/27 09:16:54;;;;;;;2.33;0.75;;;;;;;;;;5019183;28;20032;-39
2022/05/27 09:19:36;;;;;;;6.10;1.17;;;;;;;;;;5028073;28;20476;-40
2022/05/27 09:22:14;;;;;;;2.17;0.40;;;;;;;;;;5028514;28;20384;-38
2022/05/27 09:24:58;;;;;;;8.13;0.93;;;;;;;;;;5029529;28;20037;-38
2022/05/27 09:27:28;;;;;;;2.67;0.75;;;;;;;;;;5016889;28;20472;-39
2022/05/27 09:30:13;;;;;;;2.72;0.77;;;;;;;;;;5019734;28;20041;-40
2022/05/27 09:32:48;;;;;;;5.88;0.85;;;;;;;;;;5026545;28;20041;-40
2022/05/27 09:35:20;;;;;;;2.03;0.80;;;;;;;;;;5028309;28;20037;-39
2022/05/27 09:37:47;;;;;;;9.68;0.98;;;;;;;;;;5023703;28;20082;-39
2022/05/27 09:40:14;;;;;;;2.55;0.80;;;;;;;;;;5025461;28;20037;-40
2022/05/27 09:43:00;;;;;;;2.23;0.93;;;;;;;;;;5025665;28;20021;-40
2022/05/27 09:45:29;;;;;;;2.15;0.68;;;;;;;;;;5019759;28;20045;-39
2022/05/27 09:47:58;;;;;;;6.00;0.80;;;;;;;;;;5030642;28;20049;-39
2022/05/27 09:50:24;;;;;;;6.82;1.02;;;;;;;;;;5021568;28;20505;-40
2022/05/27 09:52:50;;;;;;;7.25;1.13;;;;;;;;;;5026352;28;20048;-39
2022/05/27 09:55:21;;;;;;;1.17;0.70;;;;;;;;;;5026555;28;20472;-42
2022/05/27 09:57:54;;;;;;;2.17;0.70;;;;;;;;;;5030215;28;20075;-40
2022/05/27 10:00:33;;;;;;;2.95;0.90;;;;;;;;;;5029257;28;20021;-40
2022/05/27 10:02:58;;;;;;;1.10;0.68;;;;;;;;;;5032394;28;20036;-41
2022/05/27 10:05:24;;;;;;;0.85;0.70;;;;;;;;;;5031267;28;20029;-40
2022/05/27 10:07:51;;;;;;;0.75;0.60;;;;;;;;;;5029478;28;20064;-40
2022/05/27 10:10:28;;;;;;;6.30;1.02;;;;;;;;;;5025670;28;20028;-40
2022/05/27 10:12:58;;;;;;;3.80;1.00;;;;;;;;;;5027601;28;20033;-40
2022/05/27 10:15:28;;;;;;;3.30;0.68;;;;;;;;;;5030207;28;20243;-39
2022/05/27 10:17:54;;;;;;;0.75;0.70;;;;;;;;;;5027680;28;20029;-40
2022/05/27 10:20:20;;;;;;;120.07;7.05;;;;;;;;;;5018939;28;20481;-42
2022/05/27 10:23:05;;;;;;;1.13;0.75;;;;;;;;;;5016878;28;20604;-40
2022/05/27 10:25:41;;;;;;;1.38;0.95;;;;;;;;;;5022330;28;20037;-39
2022/05/27 10:28:07;;;;;;;7.13;0.98;;;;;;;;;;5030014;28;20033;-40
2022/05/27 10:30:34;;;;;;;4.07;0.82;;;;;;;;;;5032872;28;20707;-40
2022/05/27 10:33:14;;;;;;;8.70;0.98;;;;;;;;;;5023461;28;20567;-39
2022/05/27 10:35:39;;;;;;;1.60;0.90;;;;;;;;;;5025927;28;20049;-39
2022/05/27 10:38:10;;;;;;;2.80;1.13;;;;;;;;;;5028095;28;20096;-40
2022/05/27 10:40:35;;;;;;;2.47;0.82;;;;;;;;;;5024027;28;20382;-43
2022/05/27 10:43:07;;;;;;;5.45;0.80;;;;;;;;;;5023533;28;20116;-40
2022/05/27 10:45:38;;;;;;;2.72;0.90;;;;;;;;;;5015416;28;20032;-40
2022/05/27 10:48:18;;;;;;;3.80;0.70;;;;;;;;;;5019076;28;20124;-40
2022/05/27 10:51:07;;;;;;;1.00;0.60;;;;;;;;;;5022204;28;20037;-40
2022/05/27 10:54:02;;;;;;;2.22;1.10;;;;;;;;;;5038559;28;20370;-39
2022/05/27 10:56:36;;;;;;;2.47;0.80;;;;;;;;;;5017105;28;20068;-41
2022/05/27 11:02:04;;;;;;;8.18;1.20;;;;;;;;;;5024823;28;20036;-40
2022/05/27 11:04:30;;;;;;;4.35;1.00;;;;;;;;;;5029105;28;20029;-40
2022/05/27 11:06:58;;;;;;;2.15;0.90;;;;;;;;;;5033470;28;20022;-40
2022/05/27 11:09:24;;;;;;;;;;;;;;;;;;5033918;28;20025;-40
2022/05/27 11:12:00;;;;;;;6.53;1.00;;;;;;;;;;5032366;28;20283;-41
2022/05/27 11:17:18;;;;;;;4.72;1.00;;;;;;;;;;5035695;28;20100;-40
2022/05/27 11:20:03;;;;;;;2.58;0.82;;;;;;;;;;5035323;28;20511;-40
2022/05/27 11:22:45;;;;;;;1.50;0.90;;;;;;;;;;5027057;28;20055;-41
2022/05/27 11:25:36;;;;;;;3.30;0.95;;;;;;;;;;5025611;28;20018;-41
2022/05/27 11:28:04;;;;;;;2.42;1.23;;;;;;;;;;5016769;28;20038;-40
2022/05/27 11:30:38;;;;;;;2.38;0.98;;;;;;;;;;5029454;28;20014;-40
2022/05/27 11:33:04;;;;;;;2.03;1.00;;;;;;;;;;5032533;28;20044;-40
2022/05/27 11:35:29;;;;;;;1.05;0.70;;;;;;;;;;5025445;28;20030;-41
2022/05/27 11:37:57;;;;;;;2.65;0.90;;;;;;;;;;5027374;28;20100;-39
2022/05/27 11:40:26;;;;;;;5.60;1.08;;;;;;;;;;5020365;28;20062;-40
2022/05/27 11:43:07;;;;;;;3.03;0.90;;;;;;;;;;5026982;28;20101;-41
2022/05/27 11:45:33;;;;;;;3.25;0.73;;;;;;;;;;5029878;28;20029;-41
2022/05/27 11:48:05;;;;;;;4.80;1.30;;;;;;;;;;5027511;28;20021;-41
2022/05/27 11:50:49;;;;;;;3.08;1.20;;;;;;;;;;5017341;28;20388;-40
2022/05/27 11:53:32;;;;;;;5.70;1.20;;;;;;;;;;5034657;28;20112;-40
2022/05/27 11:56:08;;;;;;;4.47;1.20;;;;;;;;;;5034739;28;20021;-40
2022/05/27 11:58:52;;;;;;;7.03;1.30;;;;;;;;;;5033686;28;20041;-44
2022/05/27 12:01:24;;;;;;;10.02;1.90;;;;;;;;;;5023775;28;20061;-41
2022/05/27 12:04:02;;;;;;;4.45;1.30;;;;;;;;;;5032072;28;20026;-41
2022/05/27 12:06:31;;;;;;;7.25;1.38;;;;;;;;;;5033046;28;20030;-39
2022/05/27 12:09:00;;;;;;;4.70;1.20;;;;;;;;;;5034293;28;20036;-41
2022/05/27 12:11:30;;;;;;;6.30;2.05;;;;;;;;;;5034870;28;20083;-40
2022/05/27 12:13:58;;;;;;;10.15;1.63;;;;;;;;;;5030057;28;20452;-39
2022/05/27 12:16:27;;;;;;;2.45;1.40;;;;;;;;;;5015106;28;20030;-40
2022/05/27 12:18:52;;;;;;;;;;;;;;;;;;5019925;28;20392;-42
2022/05/27 12:21:22;;;;;;;3.07;1.23;;;;;;;;;;5020192;28;20008;-40
2022/05/27 12:23:56;;;;;;;2.65;1.30;;;;;;;;;;5028334;28;20037;-39
2022/05/27 12:26:26;;;;;;;4.65;1.55;;;;;;;;;;5025521;28;20022;-41
2022/05/27 12:28:51;;;;;;;3.33;1.50;;;;;;;;;;5034280;28;20025;-40
2022/05/27 12:31:17;;;;;;;3.97;1.40;;;;;;;;;;5034355;28;20034;-40
2022/05/27 12:33:43;;;;;;;6.07;1.60;;;;;;;;;;5034028;28;20021;-40
2022/05/27 12:36:25;;;;;;;4.07;1.63;;;;;;;;;;5034803;28;20056;-44
2022/05/27 12:38:52;;;;;;;2.05;1.52;;;;;;;;;;5029249;28;20560;-40
2022/05/27 12:41:31;;;;;;;3.38;1.95;;;;;;;;;;5022175;28;20480;-39
2022/05/27 12:43:58;;;;;;;7.30;2.07;;;;;;;;;;5027524;28;20022;-44
2022/05/27 12:46:27;;;;;;;3.97;1.17;;;;;;;;;;5036641;28;20174;-40
2022/05/27 12:48:55;;;;;;;3.78;1.20;;;;;;;;;;5042658;28;20479;-40
2022/05/27 12:51:20;;;;;;;3.57;1.03;;;;;;;;;;5027205;28;20033;-41
2022/05/27 12:53:47;;;;;;;2.78;1.10;;;;;;;;;;5024587;28;20017;-40
2022/05/27 13:02:14;;;;;;;3.42;1.13;;;;;;;;;;5027944;28;20032;-41
2022/05/27 13:04:47;;;;;;;2.85;1.35;;;;;;;;;;5026200;28;20041;-42
2022/05/27 13:07:12;;;;;;;2.72;1.20;;;;;;;;;;5024352;28;20034;-41
2022/05/27 13:09:43;;;;;;;2.20;0.95;;;;;;;;;;5025458;28;21806;-40
2022/05/27 13:12:11;;;;;;;2.55;1.30;;;;;;;;;;5026293;28;20029;-40
2022/05/27 13:15:02;;;;;;;3.67;1.58;;;;;;;;;;5026616;28;20107;-41
2022/05/27 13:17:42;;;;;;;6.75;1.10;;;;;;;;;;5026785;28;20045;-40
2022/05/27 13:20:19;;;;;;;5.05;1.23;;;;;;;;;;5032249;28;20461;-41
2022/05/27 13:22:58;;;;;;;3.25;1.20;;;;;;;;;;5017616;28;20032;-41
2022/05/27 13:25:29;;;;;;;2.42;1.50;;;;;;;;;;5021591;28;20473;-40
2022/05/27 13:27:57;;;;;;;5.22;2.22;;;;;;;;;;5032773;28;20040;-41
2022/05/27 13:30:24;;;;;;;3.70;1.80;;;;;;;;;;5026927;28;20030;-41
2022/05/27 13:32:57;;;;;;;2.53;1.50;;;;;;;;;;5026413;28;20042;-41
2022/05/27 13:35:22;;;;;;;3.13;1.40;;;;;;;;;;5023321;28;20045;-41
2022/05/27 13:37:52;;;;;;;3.72;1.25;;;;;;;;;;5017041;28;20429;-41
2022/05/27 13:40:20;;;;;;;1.77;1.20;;;;;;;;;;5012635;28;20038;-40
2022/05/27 13:42:47;;;;;;;1.42;0.93;;;;;;;;;;5016217;28;20029;-40
2022/05/27 13:45:15;;;;;;;2.58;1.20;;;;;;;;;;5017235;28;20104;-40
2022/05/27 13:47:43;;;;;;;7.40;1.63;;;;;;;;;;5022927;28;20017;-43
2022/05/27 13:50:09;;;;;;;;;;;;;;;;;;5019425;28;20032;-41
2022/05/27 13:52:37;;;;;;;4.73;1.23;;;;;;;;;;5031541;28;19934;-43
2022/05/27 13:55:07;;;;;;;2.78;1.70;;;;;;;;;;5032600;28;20028;-42
2022/05/27 13:57:34;;;;;;;6.00;1.60;;;;;;;;;;5032652;28;20024;-40
2022/05/27 14:00:00;;;;;;;6.70;1.40;;;;;;;;;;5028033;28;20395;-40
2022/05/27 14:02:43;;;;;;;3.83;1.58;;;;;;;;;;5022847;28;20029;-45
2022/05/27 14:05:19;;;;;;;13.25;1.83;;;;;;;;;;5023739;28;20029;-39
2022/05/27 14:07:48;;;;;;;6.32;2.47;;;;;;;;;;5023996;28;20065;-39
2022/05/27 14:10:16;;;;;;;10.43;1.52;;;;;;;;;;5023093;28;20032;-41
2022/05/27 14:12:41;;;;;;;4.63;1.30;;;;;;;;;;5021535;28;20164;-41
2022/05/27 14:15:19;;;;;;;4.82;1.40;;;;;;;;;;5019034;28;20097;-44
2022/05/27 14:17:49;;;;;;;4.93;1.40;;;;;;;;;;5028537;28;20500;-40
2022/05/27 14:20:24;;;;;;;8.50;1.25;;;;;;;;;;5028518;28;20037;-38
2022/05/27 14:22:51;;;;;;;3.90;1.17;;;;;;;;;;5023750;28;20025;-42
2022/05/27 14:25:31;;;;;;;4.70;1.67;;;;;;;;;;5024345;28;20045;-39
2022/05/27 14:27:59;;;;;;;3.90;1.60;;;;;;;;;;5013436;28;20428;-41
2022/05/27 14:30:40;;;;;;;1.45;1.20;;;;;;;;;;5012815;28;20025;-40
2022/05/27 14:33:19;;;;;;;4.20;1.05;;;;;;;;;;5011826;28;20041;-40
2022/05/27 14:35:45;;;;;;;4.75;1.25;;;;;;;;;;5024331;28;20456;-43
2022/05/27 14:38:13;;;;;;;1.65;1.20;;;;;;;;;;5027852;28;20064;-42
2022/05/27 14:40:39;;;;;;;5.93;1.60;;;;;;;;;;5028522;28;20045;-40
2022/05/27 14:43:15;;;;;;;7.97;1.45;;;;;;;;;;5033587;28;20068;-40
2022/05/27 14:45:47;;;;;;;8.10;1.98;;;;;;;;;;5036345;28;20028;-47
2022/05/27 14:48:23;;;;;;;3.33;1.52;;;;;;;;;;5053212;28;20025;-40
2022/05/27 14:50:49;;;;;;;4.15;1.50;;;;;;;;;;5037462;28;20033;-41
2022/05/27 14:53:16;;;;;;;3.78;1.95;;;;;;;;;;5023508;28;20362;-40
2022/05/27 14:55:41;;;;;;;8.50;1.60;;;;;;;;;;5022075;28;20033;-41
2022/05/27 14:58:08;;;;;;;4.18;1.92;;;;;;;;;;5019892;28;20353;-40
2022/05/27 15:00:53;;;;;;;6.72;1.92;;;;;;;;;;5030032;28;20033;-39
2022/05/27 15:03:26;;;;;;;8.18;2.42;;;;;;;;;;5036075;28;20926;-40
2022/05/27 15:05:52;;;;;;;7.63;1.65;;;;;;;;;;5033104;28;20068;-40
2022/05/27 15:08:22;;;;;;;5.45;1.60;;;;;;;;;;5019281;28;20104;-44
2022/05/27 15:11:06;;;;;;;10.77;1.63;;;;;;;;;;5031293;28;20384;-39
2022/05/27 15:13:42;;;;;;;25.63;4.82;;;;;;;;;;5034295;28;20033;-39
2022/05/27 15:16:08;;;;;;;3.92;1.63;;;;;;;;;;5035902;28;20029;-40
2022/05/27 15:18:40;;;;;;;3.90;2.00;;;;;;;;;;5037633;28;20041;-40
2022/05/27 15:21:09;;;;;;;12.55;2.03;;;;;;;;;;5027878;28;20026;-41
2022/05/27 15:23:36;;;;;;;8.15;1.40;;;;;;;;;;5019437;28;20487;-40
2022/05/27 15:34:20;;;;;;;10.25;2.20;;;;;;;;;;5031219;28;20084;-40
2022/05/27 15:36:46;;;;;;;6.95;1.90;;;;;;;;;;5032027;28;20064;-39
2022/05/27 15:39:11;;;;;;;5.88;1.58;;;;;;;;;;5030140;28;20086;-39